createdAt,value
2023-05-09T00:00:40.310Z,59.49
2023-05-09T00:03:14.542Z,59.81
2023-05-09T00:05:47.584Z,59.95
2023-05-09T00:08:19.715Z,60.03
2023-05-09T00:10:52.599Z,60.18
2023-05-09T00:13:24.969Z,60.35
2023-05-09T00:15:58.735Z,60.56
2023-05-09T00:18:31.401Z,60.59
2023-05-09T00:21:04.279Z,60.83
2023-05-09T00:23:36.879Z,60.80
2023-05-09T00:26:09.034Z,61.02
2023-05-09T00:28:42.263Z,61.16
2023-05-09T00:31:14.714Z,61.25
2023-05-09T00:33:46.781Z,61.50
2023-05-09T00:36:18.900Z,61.66
2023-05-09T00:38:51.275Z,61.58
2023-05-09T00:41:23.609Z,61.91
2023-05-09T00:43:55.728Z,62.15
2023-05-09T00:46:28.239Z,62.20
2023-05-09T00:49:01.952Z,62.15
2023-05-09T00:51:34.966Z,62.39
2023-05-09T00:54:09.127Z,62.62
2023-05-09T00:56:41.162Z,62.64
2023-05-09T00:59:15.288Z,62.53
2023-05-09T01:01:47.997Z,62.37
2023-05-09T01:04:20.355Z,62.36
2023-05-09T01:07:01.365Z,62.54
2023-05-09T01:10:06.673Z,62.93
2023-05-09T01:12:44.527Z,62.95
2023-05-09T01:15:34.703Z,62.88
2023-05-09T01:18:09.787Z,63.19
2023-05-09T01:20:47.882Z,63.39
2023-05-09T01:23:41.565Z,63.56
2023-05-09T01:26:28.749Z,63.50
2023-05-09T01:29:21.438Z,63.73
2023-05-09T01:31:54.678Z,64.09
2023-05-09T01:34:29.764Z,64.13
2023-05-09T01:37:04.398Z,64.33
2023-05-09T01:39:39.360Z,64.19
2023-05-09T01:42:14.463Z,64.16
2023-05-09T01:44:48.712Z,64.15
2023-05-09T01:47:22.209Z,64.31
2023-05-09T01:49:56.434Z,64.48
2023-05-09T01:52:30.642Z,64.78
2023-05-09T01:55:03.392Z,64.86
2023-05-09T01:57:38.412Z,64.83
2023-05-09T02:00:13.306Z,64.71
2023-05-09T02:02:45.397Z,64.57
2023-05-09T02:05:19.226Z,64.46
2023-05-09T02:07:52.432Z,64.55
2023-05-09T02:10:25.632Z,64.50
2023-05-09T02:12:58.634Z,64.49
2023-05-09T02:15:31.448Z,64.44
2023-05-09T02:18:03.840Z,64.29
2023-05-09T02:20:36.355Z,64.10
2023-05-09T02:23:09.847Z,64.04
2023-05-09T02:25:42.735Z,63.97
2023-05-09T02:28:15.756Z,63.92
2023-05-09T02:30:50.337Z,63.77
2023-05-09T02:33:21.686Z,63.60
2023-05-09T02:35:54.716Z,63.41
2023-05-09T02:38:27.464Z,62.24
2023-05-09T02:40:59.801Z,62.35
2023-05-09T02:43:32.074Z,62.08
2023-05-09T02:46:04.944Z,61.76
2023-05-09T02:48:38.451Z,61.74
2023-05-09T02:51:11.538Z,61.39
2023-05-09T02:53:44.215Z,61.04
2023-05-09T02:56:16.833Z,61.04
2023-05-09T02:58:51.034Z,60.76
2023-05-09T03:01:23.506Z,60.26
2023-05-09T03:03:55.937Z,59.68
2023-05-09T03:06:28.296Z,59.24
2023-05-09T03:09:01.811Z,59.20
2023-05-09T03:11:34.218Z,58.72
2023-05-09T03:14:08.500Z,58.49
2023-05-09T03:16:40.854Z,58.09
2023-05-09T03:19:14.723Z,57.84
2023-05-09T03:21:46.888Z,57.24
2023-05-09T03:24:19.024Z,56.43
2023-05-09T03:26:51.299Z,55.94
2023-05-09T03:29:23.551Z,55.44
2023-05-09T03:31:56.217Z,55.28
2023-05-09T03:34:28.782Z,54.88
2023-05-09T03:37:02.768Z,54.49
2023-05-09T03:39:35.445Z,54.04
2023-05-09T03:42:07.524Z,53.28
2023-05-09T03:44:39.645Z,52.59
2023-05-09T03:47:12.185Z,52.09
2023-05-09T03:49:44.758Z,51.12
2023-05-09T03:52:18.009Z,50.37
2023-05-09T03:54:50.920Z,49.78
2023-05-09T03:57:23.796Z,48.76
2023-05-09T03:59:57.754Z,47.87
2023-05-09T04:02:30.126Z,46.87
2023-05-09T04:05:02.908Z,47.07
2023-05-09T04:07:35.832Z,45.97
2023-05-09T04:10:09.677Z,45.54
2023-05-09T04:12:42.134Z,44.74
2023-05-09T04:15:14.993Z,43.86
2023-05-09T04:17:47.622Z,44.35
2023-05-09T04:20:19.715Z,43.52
2023-05-09T04:22:52.112Z,42.29
2023-05-09T04:25:25.025Z,42.04
2023-05-09T04:27:57.388Z,41.33
2023-05-09T04:30:29.744Z,40.84
2023-05-09T04:33:02.925Z,40.95
2023-05-09T04:35:35.699Z,40.19
2023-05-09T04:38:08.289Z,39.28
2023-05-09T04:40:41.025Z,39.23
2023-05-09T04:43:13.281Z,38.70
2023-05-09T04:45:46.694Z,38.06
2023-05-09T04:48:19.270Z,36.10
2023-05-09T04:50:51.408Z,36.21
2023-05-09T04:53:23.555Z,36.29
2023-05-09T04:55:56.468Z,35.64
2023-05-09T04:58:28.786Z,35.40
2023-05-09T05:01:01.122Z,35.92
2023-05-09T05:03:33.496Z,35.43
2023-05-09T05:06:06.073Z,35.19
2023-05-09T05:08:38.192Z,34.75
2023-05-09T05:11:10.486Z,34.96
2023-05-09T05:13:42.810Z,34.44
2023-05-09T05:16:15.217Z,34.44
2023-05-09T05:18:48.261Z,34.69
2023-05-09T05:21:20.614Z,34.98
2023-05-09T05:23:53.282Z,35.05
2023-05-09T05:26:25.779Z,34.60
2023-05-09T05:28:58.099Z,34.25
2023-05-09T05:31:31.619Z,34.15
2023-05-09T05:34:03.770Z,33.57
2023-05-09T05:36:37.444Z,33.23
2023-05-09T05:39:09.575Z,33.09
2023-05-09T05:41:41.537Z,33.28
2023-05-09T05:44:14.562Z,32.77
2023-05-09T05:46:47.372Z,31.37
2023-05-09T05:49:19.437Z,31.72
2023-05-09T05:51:51.733Z,30.66
2023-05-09T05:54:25.590Z,32.30
2023-05-09T05:56:58.634Z,31.35
2023-05-09T05:59:31.127Z,30.70
2023-05-09T06:02:03.420Z,30.77
2023-05-09T06:04:35.990Z,30.52
2023-05-09T06:07:08.494Z,30.43
2023-05-09T06:09:40.790Z,29.52
2023-05-09T06:12:14.519Z,29.78
2023-05-09T06:14:46.953Z,30.08
2023-05-09T06:17:19.680Z,28.83
2023-05-09T06:19:52.083Z,26.85
2023-05-09T06:22:24.166Z,25.78
2023-05-09T06:24:57.016Z,25.66
2023-05-09T06:27:29.070Z,25.53
2023-05-09T06:30:08.356Z,25.46
2023-05-09T06:32:36.846Z,25.26
2023-05-09T06:35:10.616Z,25.51
2023-05-09T06:37:44.303Z,25.68
2023-05-09T06:40:18.028Z,25.63
2023-05-09T06:42:50.234Z,26.09
2023-05-09T06:45:22.728Z,26.50
2023-05-09T06:47:54.944Z,26.58
2023-05-09T06:50:27.264Z,26.12
2023-05-09T06:52:59.476Z,25.78
2023-05-09T06:55:31.656Z,25.65
2023-05-09T06:58:04.927Z,25.73
2023-05-09T07:00:37.006Z,26.12
2023-05-09T07:03:09.455Z,25.96
2023-05-09T07:05:41.940Z,25.83
2023-05-09T07:08:14.125Z,25.63
2023-05-09T07:10:46.670Z,25.60
2023-05-09T07:13:18.941Z,25.50
2023-05-09T07:15:51.458Z,25.32
2023-05-09T07:18:23.640Z,25.03
2023-05-09T07:20:55.906Z,24.15
2023-05-09T07:23:28.014Z,24.81
2023-05-09T07:26:00.115Z,24.77
2023-05-09T07:28:32.445Z,24.25
2023-05-09T07:31:06.225Z,24.21
2023-05-09T07:33:38.746Z,24.16
2023-05-09T07:36:12.803Z,23.63
2023-05-09T07:38:45.119Z,23.32
2023-05-09T07:41:17.707Z,23.48
2023-05-09T07:43:50.239Z,23.59
2023-05-09T07:46:22.965Z,23.41
2023-05-09T07:48:55.673Z,23.21
2023-05-09T07:51:28.068Z,24.36
2023-05-09T07:54:00.285Z,23.87
2023-05-09T07:56:32.433Z,24.59
2023-05-09T07:59:04.593Z,23.95
2023-05-09T08:01:36.663Z,23.39
2023-05-09T08:04:09.904Z,23.62
2023-05-09T08:06:42.133Z,23.57
2023-05-09T08:09:14.154Z,23.83
2023-05-09T08:11:47.171Z,23.95
2023-05-09T08:14:19.590Z,23.82
2023-05-09T08:16:52.032Z,23.86
2023-05-09T08:19:25.777Z,22.89
2023-05-09T08:21:58.138Z,22.89
2023-05-09T08:24:32.011Z,22.58
2023-05-09T08:27:04.901Z,22.58
2023-05-09T08:29:36.980Z,22.40
2023-05-09T08:32:10.067Z,22.32
2023-05-09T08:34:42.577Z,23.37
2023-05-09T08:37:16.360Z,21.93
2023-05-09T08:39:49.098Z,22.24
2023-05-09T08:42:25.609Z,21.56
2023-05-09T08:44:57.921Z,22.07
2023-05-09T08:47:30.586Z,21.06
2023-05-09T08:50:04.487Z,20.76
2023-05-09T08:52:37.026Z,20.90
2023-05-09T08:55:10.239Z,20.77
2023-05-09T08:57:42.643Z,20.70
2023-05-09T09:00:20.246Z,20.69
2023-05-09T09:02:53.589Z,20.84
2023-05-09T09:05:40.663Z,21.57
2023-05-09T09:08:00.784Z,20.50
2023-05-09T09:10:34.360Z,22.54
2023-05-09T09:13:07.823Z,20.64
2023-05-09T09:15:42.073Z,21.04
2023-05-09T09:18:19.905Z,20.83
2023-05-09T09:20:55.348Z,21.56
2023-05-09T09:23:30.152Z,21.67
2023-05-09T09:26:07.178Z,21.74
2023-05-09T09:28:40.304Z,21.49
2023-05-09T09:31:29.277Z,21.45
2023-05-09T09:34:05.111Z,21.45
2023-05-09T09:36:37.160Z,21.81
2023-05-09T09:39:09.788Z,22.06
2023-05-09T09:41:42.686Z,20.26
2023-05-09T09:44:16.917Z,20.26
2023-05-09T09:46:51.508Z,20.18
2023-05-09T09:49:24.946Z,20.39
2023-05-09T09:51:58.743Z,20.55
2023-05-09T09:54:33.625Z,19.80
2023-05-09T09:57:05.965Z,19.46
2023-05-09T09:59:38.203Z,19.66
2023-05-09T10:02:11.900Z,18.56
2023-05-09T10:04:45.029Z,18.05
2023-05-09T10:07:17.223Z,18.28
2023-05-09T10:09:49.588Z,18.10
2023-05-09T10:12:23.586Z,17.65
2023-05-09T10:14:56.526Z,18.46
2023-05-09T10:17:31.527Z,18.35
2023-05-09T10:20:06.891Z,17.85
2023-05-09T10:22:41.204Z,17.89
2023-05-09T10:25:21.642Z,17.82
2023-05-09T10:27:55.807Z,17.72
2023-05-09T10:30:31.453Z,18.00
2023-05-09T10:33:07.892Z,17.77
2023-05-09T10:35:48.346Z,17.47
2023-05-09T10:38:20.709Z,17.36
2023-05-09T10:40:54.610Z,17.78
2023-05-09T10:43:27.532Z,17.36
2023-05-09T10:45:59.780Z,17.16
2023-05-09T10:48:36.455Z,17.36
2023-05-09T10:51:10.615Z,17.26
2023-05-09T10:53:48.156Z,17.56
2023-05-09T10:56:36.030Z,18.17
2023-05-09T10:59:09.826Z,17.72
2023-05-09T11:01:42.081Z,17.36
2023-05-09T11:04:15.835Z,17.03
2023-05-09T11:06:51.640Z,17.17
2023-05-09T11:09:30.153Z,17.63
2023-05-09T11:12:11.157Z,17.78
2023-05-09T11:14:48.794Z,17.71
2023-05-09T11:17:29.568Z,17.65
2023-05-09T11:20:05.525Z,17.98
2023-05-09T11:22:44.738Z,17.80
2023-05-09T11:25:22.327Z,18.08
2023-05-09T11:27:57.768Z,17.19
2023-05-09T11:30:42.050Z,16.28
2023-05-09T11:33:33.627Z,14.74
2023-05-09T11:36:33.385Z,14.80
2023-05-09T11:39:12.508Z,15.09
2023-05-09T11:41:47.043Z,15.57
2023-05-09T11:44:21.740Z,14.99
2023-05-09T11:46:53.939Z,15.07
2023-05-09T11:49:26.023Z,15.02
2023-05-09T11:52:00.594Z,14.00
2023-05-09T11:54:31.954Z,12.66
2023-05-09T11:57:03.896Z,13.74
2023-05-09T11:59:36.970Z,10.63
2023-05-09T12:02:09.150Z,10.05
2023-05-09T12:04:41.732Z,9.62
2023-05-09T12:07:14.362Z,9.46
2023-05-09T12:09:46.858Z,9.87
2023-05-09T12:12:20.753Z,9.94
2023-05-09T12:14:53.908Z,9.60
2023-05-09T12:17:26.849Z,9.32
2023-05-09T12:20:02.708Z,9.86
2023-05-09T12:22:37.798Z,10.73
2023-05-09T12:25:12.218Z,11.36
2023-05-09T12:27:44.933Z,12.17
2023-05-09T12:30:18.761Z,12.77
2023-05-09T12:32:51.089Z,13.33
2023-05-09T12:35:26.598Z,14.09
2023-05-09T12:38:00.523Z,14.36
2023-05-09T12:40:33.116Z,14.91
2023-05-09T12:43:05.445Z,15.36
2023-05-09T12:45:38.942Z,15.78
2023-05-09T12:48:11.816Z,16.32
2023-05-09T12:50:46.906Z,16.90
2023-05-09T12:53:32.412Z,16.88
2023-05-09T12:56:06.748Z,17.61
2023-05-09T12:58:39.676Z,17.95
2023-05-09T13:01:12.608Z,18.28
2023-05-09T13:03:45.157Z,18.68
2023-05-09T13:06:17.238Z,17.98
2023-05-09T13:08:52.799Z,18.15
2023-05-09T13:11:26.157Z,17.84
2023-05-09T13:13:58.967Z,17.40
2023-05-09T13:16:31.139Z,15.04
2023-05-09T13:19:05.125Z,12.27
2023-05-09T13:21:37.810Z,10.11
2023-05-09T13:24:09.940Z,8.76
2023-05-09T13:26:42.458Z,7.24
2023-05-09T13:29:14.568Z,6.68
2023-05-09T13:31:46.814Z,6.77
2023-05-09T13:34:18.914Z,6.16
2023-05-09T13:36:51.567Z,5.87
2023-05-09T13:39:23.562Z,5.93
2023-05-09T13:41:55.729Z,5.54
2023-05-09T13:44:29.091Z,6.04
2023-05-09T13:47:01.138Z,6.65
2023-05-09T13:49:33.710Z,7.23
2023-05-09T13:52:06.846Z,8.12
2023-05-09T13:54:39.160Z,8.64
2023-05-09T13:57:11.288Z,9.24
2023-05-09T13:59:44.295Z,9.88
2023-05-09T14:02:16.480Z,10.63
2023-05-09T14:04:48.701Z,11.37
2023-05-09T14:07:21.771Z,12.36
2023-05-09T14:09:58.800Z,13.27
2023-05-09T14:12:29.116Z,14.12
2023-05-09T14:15:02.265Z,14.93
2023-05-09T14:17:34.780Z,14.85
2023-05-09T14:20:08.472Z,15.34
2023-05-09T14:22:40.969Z,14.24
2023-05-09T14:25:13.686Z,12.33
2023-05-09T14:27:45.878Z,11.11
2023-05-09T14:30:18.263Z,9.50
2023-05-09T14:32:50.908Z,8.74
2023-05-09T14:35:23.487Z,7.94
2023-05-09T14:37:55.711Z,7.86
2023-05-09T14:40:29.767Z,7.25
2023-05-09T14:43:02.991Z,6.62
2023-05-09T14:45:35.075Z,6.30
2023-05-09T14:48:07.230Z,6.18
2023-05-09T14:50:39.444Z,6.26
2023-05-09T14:53:11.935Z,6.06
2023-05-09T14:55:44.071Z,6.01
2023-05-09T14:58:17.673Z,6.00
2023-05-09T15:00:50.665Z,6.03
2023-05-09T15:03:22.810Z,5.99
2023-05-09T15:05:55.203Z,6.48
2023-05-09T15:08:27.720Z,6.73
2023-05-09T15:11:00.186Z,7.10
2023-05-09T15:13:32.571Z,8.01
2023-05-09T15:16:04.775Z,9.26
2023-05-09T15:18:37.305Z,10.38
2023-05-09T15:21:09.858Z,11.77
2023-05-09T15:23:42.409Z,12.90
2023-05-09T15:26:15.019Z,13.67
2023-05-09T15:28:47.393Z,14.56
2023-05-09T15:31:24.145Z,15.05
2023-05-09T15:33:56.339Z,15.65
2023-05-09T15:36:34.054Z,15.93
2023-05-09T15:39:08.022Z,16.44
2023-05-09T15:41:40.241Z,16.98
2023-05-09T15:44:14.041Z,17.13
2023-05-09T15:46:46.242Z,17.27
2023-05-09T15:49:18.605Z,17.33
2023-05-09T15:51:50.792Z,17.83
2023-05-09T15:54:24.696Z,18.34
2023-05-09T15:56:56.978Z,18.48
2023-05-09T15:59:29.554Z,18.73
2023-05-09T16:02:01.833Z,18.92
2023-05-09T16:04:34.828Z,18.87
2023-05-09T16:07:07.246Z,19.35
2023-05-09T16:09:39.393Z,20.04
2023-05-09T16:12:11.493Z,19.52
2023-05-09T16:14:43.483Z,20.29
2023-05-09T16:17:15.730Z,20.21
2023-05-09T16:19:47.798Z,20.35
2023-05-09T16:22:19.960Z,21.36
2023-05-09T16:24:52.032Z,21.24
2023-05-09T16:27:24.734Z,21.42
2023-05-09T16:29:57.009Z,21.80
2023-05-09T16:32:29.145Z,21.84
2023-05-09T16:35:01.412Z,22.05
2023-05-09T16:37:35.698Z,22.44
2023-05-09T16:40:08.440Z,21.62
2023-05-09T16:42:42.793Z,22.40
2023-05-09T16:45:14.820Z,23.94
2023-05-09T16:47:47.596Z,23.97
2023-05-09T16:50:19.774Z,24.33
2023-05-09T16:52:52.118Z,24.33
2023-05-09T16:55:24.557Z,24.48
2023-05-09T16:57:56.650Z,24.40
2023-05-09T17:00:29.381Z,25.54
2023-05-09T17:03:02.584Z,25.70
2023-05-09T17:05:34.976Z,25.90
2023-05-09T17:08:07.031Z,25.40
2023-05-09T17:10:41.410Z,26.86
2023-05-09T17:13:13.393Z,27.02
2023-05-09T17:15:45.899Z,27.29
2023-05-09T17:18:29.170Z,27.38
2023-05-09T17:20:52.749Z,27.84
2023-05-09T17:23:25.248Z,27.84
2023-05-09T17:25:57.560Z,28.36
2023-05-09T17:28:29.464Z,29.10
2023-05-09T17:31:01.906Z,29.23
2023-05-09T17:33:34.269Z,28.97
2023-05-09T17:36:06.732Z,29.41
2023-05-09T17:38:39.544Z,29.65
2023-05-09T17:41:12.227Z,30.35
2023-05-09T17:43:44.881Z,29.68
2023-05-09T17:46:17.112Z,30.35
2023-05-09T17:48:49.426Z,30.56
2023-05-09T17:51:21.989Z,32.50
2023-05-09T17:53:54.335Z,31.65
2023-05-09T17:56:26.425Z,32.62
2023-05-09T17:59:00.152Z,31.71
2023-05-09T18:01:32.261Z,32.05
2023-05-09T18:04:04.574Z,32.05
2023-05-09T18:06:37.616Z,32.29
2023-05-09T18:09:10.213Z,33.47
2023-05-09T18:11:42.959Z,32.37
2023-05-09T18:14:15.526Z,32.56
2023-05-09T18:16:48.122Z,32.96
2023-05-09T18:19:20.349Z,33.45
2023-05-09T18:21:52.465Z,32.92
2023-05-09T18:24:26.008Z,33.58
2023-05-09T18:26:59.764Z,33.71
2023-05-09T18:29:32.383Z,33.48
2023-05-09T18:32:06.963Z,35.18
2023-05-09T18:34:42.683Z,34.45
2023-05-09T18:37:15.012Z,34.53
2023-05-09T18:39:47.812Z,34.62
2023-05-09T18:42:19.933Z,35.10
2023-05-09T18:44:52.025Z,35.44
2023-05-09T18:47:25.559Z,35.73
2023-05-09T18:49:58.490Z,35.69
2023-05-09T18:52:34.838Z,36.01
2023-05-09T18:55:07.938Z,36.02
2023-05-09T18:57:39.988Z,35.35
2023-05-09T19:00:13.080Z,35.68
2023-05-09T19:02:45.399Z,35.39
2023-05-09T19:05:17.619Z,34.75
2023-05-09T19:07:49.897Z,34.62
2023-05-09T19:10:21.959Z,33.71
2023-05-09T19:12:54.399Z,33.58
2023-05-09T19:15:26.894Z,33.27
2023-05-09T19:17:59.179Z,32.33
2023-05-09T19:20:31.612Z,31.78
2023-05-09T19:23:03.772Z,31.41
2023-05-09T19:25:37.090Z,31.59
2023-05-09T19:28:09.300Z,31.10
2023-05-09T19:30:41.495Z,30.49
2023-05-09T19:33:13.924Z,30.40
2023-05-09T19:35:46.322Z,30.29
2023-05-09T19:38:18.657Z,31.08
2023-05-09T19:40:51.315Z,30.77
2023-05-09T19:43:23.552Z,30.69
2023-05-09T19:45:55.704Z,30.74
2023-05-09T19:48:27.768Z,30.93
2023-05-09T19:50:59.989Z,32.17
2023-05-09T19:53:32.267Z,31.95
2023-05-09T19:56:04.434Z,32.58
2023-05-09T19:58:37.021Z,32.20
2023-05-09T20:01:09.256Z,30.91
2023-05-09T20:03:43.063Z,30.08
2023-05-09T20:09:04.768Z,30.62
2023-05-09T20:11:36.903Z,31.23
2023-05-09T20:14:09.080Z,32.31
2023-05-09T20:16:42.905Z,32.17
2023-05-09T20:19:16.075Z,31.80
2023-05-09T20:21:48.303Z,31.83
2023-05-09T20:24:21.326Z,32.45
2023-05-09T20:26:55.141Z,32.55
2023-05-09T20:29:27.452Z,32.28
2023-05-09T20:31:59.911Z,31.51
2023-05-09T20:34:32.520Z,31.55
2023-05-09T20:37:04.952Z,31.73
2023-05-09T20:39:37.041Z,32.04
2023-05-09T20:42:09.145Z,32.77
2023-05-09T20:44:42.248Z,32.04
2023-05-09T20:47:14.465Z,31.31
2023-05-09T20:49:46.662Z,31.95
2023-05-09T20:52:19.025Z,32.21
2023-05-09T20:54:51.767Z,31.41
2023-05-09T20:57:23.895Z,31.52
2023-05-09T20:59:56.083Z,31.64
2023-05-09T21:02:28.273Z,31.16
2023-05-09T21:05:00.454Z,31.33
2023-05-09T21:07:34.194Z,31.70
2023-05-09T21:10:06.722Z,31.92
2023-05-09T21:12:39.624Z,31.85
2023-05-09T21:15:12.248Z,32.79
2023-05-09T21:17:44.594Z,32.13
2023-05-09T21:20:17.343Z,31.76
2023-05-09T21:22:49.916Z,31.32
2023-05-09T21:25:22.127Z,31.30
2023-05-09T21:27:54.487Z,31.12
2023-05-09T21:30:26.590Z,31.50
2023-05-09T21:32:58.936Z,31.78
2023-05-09T21:35:31.257Z,31.23
2023-05-09T21:38:03.821Z,32.65
2023-05-09T21:40:35.964Z,32.54
2023-05-09T21:43:08.232Z,32.92
2023-05-09T21:45:40.533Z,32.44
2023-05-09T21:48:12.810Z,32.04
2023-05-09T21:50:47.610Z,31.96
2023-05-09T21:53:19.902Z,31.86
2023-05-09T21:55:52.095Z,31.95
2023-05-09T21:58:24.290Z,31.56
2023-05-09T22:00:56.316Z,31.50
2023-05-09T22:03:28.794Z,32.17
2023-05-09T22:06:01.168Z,32.11
2023-05-09T22:08:33.466Z,32.52
2023-05-09T22:11:06.022Z,32.45
2023-05-09T22:13:38.364Z,32.32
2023-05-09T22:16:11.067Z,32.29
2023-05-09T22:18:43.383Z,32.53
2023-05-09T22:21:15.415Z,31.97
2023-05-09T22:23:47.596Z,32.06
2023-05-09T22:26:19.800Z,31.55
2023-05-09T22:28:51.991Z,31.98
2023-05-09T22:31:24.061Z,32.01
2023-05-09T22:33:56.142Z,31.92
2023-05-09T22:36:28.203Z,32.21
2023-05-09T22:39:02.167Z,32.70
2023-05-09T22:41:34.895Z,32.21
2023-05-09T22:44:07.139Z,32.87
2023-05-09T22:46:39.148Z,32.68
2023-05-09T22:49:14.211Z,32.55
2023-05-09T22:51:46.509Z,32.30
2023-05-09T22:54:20.447Z,32.73
2023-05-09T22:56:52.478Z,32.98
2023-05-09T22:59:24.522Z,33.15
2023-05-09T23:01:58.201Z,33.35
2023-05-09T23:04:30.922Z,32.61
2023-05-09T23:07:02.972Z,34.17
2023-05-09T23:09:35.382Z,35.47
2023-05-09T23:12:09.686Z,35.08
2023-05-09T23:14:42.062Z,35.73
2023-05-09T23:17:14.070Z,35.20
2023-05-09T23:19:46.283Z,34.63
2023-05-09T23:22:18.418Z,35.81
2023-05-09T23:24:50.461Z,35.57
2023-05-09T23:27:22.689Z,35.94
2023-05-09T23:29:54.756Z,35.95
2023-05-09T23:32:26.900Z,36.72
2023-05-09T23:34:59.020Z,36.51
2023-05-09T23:37:32.708Z,35.74
2023-05-09T23:40:05.527Z,35.31
2023-05-09T23:42:36.816Z,35.32
2023-05-09T23:45:09.654Z,34.47
2023-05-09T23:47:41.794Z,35.04
2023-05-09T23:50:14.102Z,35.22
2023-05-09T23:52:48.189Z,35.83
2023-05-09T23:55:20.799Z,34.57
2023-05-09T23:57:52.981Z,36.16
